CYMACYXY

Guest
Details From CYMA - MAYO
To CYXY - WHITEHORSE INTL
Flight Number -
Tags generated
Created
Modified
Stats Distance 178 nm / 329 km
Max Altitude 17,500 ft / 5,334 m
Waypoints 3
Social Downloads 3
Likes 0
Share VATSIM

Download

Looking for another format? Having issues loading an existing format? Contact us
Advertisement - Login to hide

Notes

Basic altitude profile: - Ascent Rate: 2500ft/min - Ascent Speed: 250kts - Cruise Altitude: 35000ft - Cruise Speed: 420kts - Descent Rate: 1500ft/min - Descent Speed: 250kts

Route

CYMA HAVOK CYXY

ID Type Via Altitude Latitude Longitude Leg Dist Tot Dist Heading (true) Name
O CYMA APT - 0 ft / 0 m 63.61639˚ -135.86833˚ - 0 nm - MAYO
HAVOK FIX - 17,500 ft / 5,334 m 62.15402˚ -135.00000˚ 90 nm 90 nm 164° / 165° -
O CYXY APT - 0 ft / 0 m 60.71219˚ -135.06711˚ 86 nm 177 nm 181° / 181° WHITEHORSE INTL

Altitude Profile

Advertisement - Login to hide

Weather


0- 5 10 15 20 25 30 35+ Temperature / ° C

Clouds and Precipitation
Forecast for 2017-12-16 06:00 UTC. Updated 34 minutes ago

Ground ~20,000 ft ~40,000 ft Winds

CYMA

Details ICAO CYMA (YMA)
Name MAYO
Region Canada
Timezone America/Whitehorse (UTC-8.0)
Stats Elevation 1,653 ft / 504 m (AMSL)
Location 63.616388° -135.868334°
Runways 1
Magnetic Variation 20.282° E

METAR

CYMA 160100Z 30002KT 20SM BKN026 M03/M03 A2965 RMK SC5 SLP073

Decode

TAF

TAF CYMA 152339Z 1600/1612 VRB03KT P6SM FEW012 BKN025 BKN100 TEMPO 1600/1609 BKN012 OVC025 FM160900 01010KT P6SM BKN012 OVC025 TEMPO 1609/1612 5SM -SN OVC012 RMK NXT FCST BY 160600Z

Decode

Departure Runways

ID Width Length Bearing (true) Bearing (mag) Surface Threshold Offset Overrun Length
06 100 ft / 30 m 4,839 ft / 1,475 m 89.71° 69.43° Gravel 0 ft / 0 m 0 ft / 0 m
24 100 ft / 30 m 4,839 ft / 1,475 m 269.74° 249.46° Gravel 0 ft / 0 m 0 ft / 0 m

CYXY

Details ICAO CYXY (YXY)
Name WHITEHORSE INTL
Region Canada
Timezone America/Whitehorse (UTC-8.0)
Stats Elevation 2,317 ft / 706 m (AMSL)
Location 60.712191° -135.067108°
Runways 3
Magnetic Variation 19.682° E

METAR

CYXY 160100Z 20009KT 15SM SKC M03/M08 A2974 RMK SLP114

Decode

TAF

TAF CYXY 152339Z 1600/1612 17005KT P6SM FEW080 SCT150 FM160500 17015KT P6SM FEW020 SCT080 BKN150 TEMPO 1605/1609 P6SM -SN SCT020 BKN080 OVC120 FM160900 17015G25KT 6SM -SN SCT020 BKN050 OVC080 TEMPO 1609/1612 4SM -SN BKN020 OVC050 RMK NXT FCST BY 160600Z

Decode

Destination Runways

ID Width Length Bearing (true) Bearing (mag) Surface Threshold Offset Overrun Length
01 75 ft / 23 m 2,070 ft / 631 m 31.99° 12.31° Asphalt 335 ft / 102 m 0 ft / 0 m
13L 80 ft / 24 m 3,922 ft / 1,195 m 158.54° 138.86° Asphalt 0 ft / 0 m 0 ft / 0 m
13R 150 ft / 46 m 9,469 ft / 2,886 m 159.27° 139.59° Asphalt 850 ft / 259 m 100 ft / 30 m
19 75 ft / 23 m 2,070 ft / 631 m 212.00° 192.32° Asphalt 0 ft / 0 m 0 ft / 0 m
31L 150 ft / 46 m 9,469 ft / 2,886 m 339.29° 319.61° Asphalt 1,400 ft / 427 m 100 ft / 30 m
31R 80 ft / 24 m 3,922 ft / 1,195 m 338.54° 318.86° Asphalt 0 ft / 0 m 0 ft / 0 m